KMHK/MHK METAR and TAF weather

Enter ICAO airport designator
Station Type Date Time Source
KMHK METAR 2020/07/03 11:52 UTC NOAA

KMHK 031152Z 26004KT 10SM CLR 21/19 A3001 RMK AO2 SLP150 60020 70020 T02060194 10250 20206 56004


Station Type Date Time Source
KMHK Decoded METAR 2020/07/03 11:52 UTC NOAA

MANHATTAN REGIONAL AIRPORT, KS, United States (KMHK) 39-08N 96-41W 317M
Jul 03, 2020 - 07:52 AM EDT / 2020.07.03 1152 UTC
Wind: from the W (260 degrees) at 5 MPH (4 KT):0
Visibility: 10 mile(s):0
Sky conditions: clear
Temperature: 69.1 F (20.6 C)
Dew Point: 66.9 F (19.4 C)
Relative Humidity: 92%
Pressure (altimeter): 30.01 in. Hg (1016 hPa)
Pressure tendency: 0.01 inches (0.4 hPa) lower than three hours ago
ob: KMHK 031152Z 26004KT 10SM CLR 21/19 A3001 RMK AO2 SLP150 60020 70020 T02060194 10250 20206 56004
cycle: 12

Station Type Date Time Source
KMHK TAF 2020/07/03 12:22 UTC NOAA

TAF KMHK 031120Z 0312/0412 06004KT P6SM BKN200
FM031500 08005KT P6SM SCT250

Example: see airport list